createdAt,value
2023-04-08T00:00:41.651Z,54.53
2023-04-08T00:03:08.693Z,60.63
2023-04-08T00:05:35.561Z,77.57
2023-04-08T00:08:02.174Z,50.40
2023-04-08T00:10:28.780Z,65.37
2023-04-08T00:12:55.745Z,61.00
2023-04-08T00:15:22.286Z,52.03
2023-04-08T00:17:48.801Z,67.37
2023-04-08T00:20:15.547Z,51.87
2023-04-08T00:22:42.046Z,57.40
2023-04-08T00:25:09.678Z,52.63
2023-04-08T00:27:36.234Z,47.30
2023-04-08T00:30:03.503Z,54.33
2023-04-08T00:32:30.163Z,45.00
2023-04-08T00:34:57.539Z,59.33
2023-04-08T00:37:25.058Z,53.83
2023-04-08T00:39:54.096Z,54.37
2023-04-08T00:42:23.810Z,61.23
2023-04-08T00:44:50.845Z,59.17
2023-04-08T00:47:17.363Z,47.33
2023-04-08T00:49:44.340Z,46.83
2023-04-08T00:52:11.048Z,49.23
2023-04-08T00:54:38.128Z,71.13
2023-04-08T00:57:05.415Z,51.90
2023-04-08T00:59:32.849Z,48.77
2023-04-08T01:02:19.185Z,55.23
2023-04-08T01:05:15.578Z,61.80
2023-04-08T01:07:46.835Z,62.20
2023-04-08T01:10:17.040Z,48.40
2023-04-08T01:12:49.323Z,48.60
2023-04-08T01:15:16.173Z,67.03
2023-04-08T01:17:43.399Z,51.97
2023-04-08T01:20:11.205Z,66.03
2023-04-08T01:22:43.881Z,66.20
2023-04-08T01:25:18.766Z,61.00
2023-04-08T01:27:45.860Z,57.57
2023-04-08T01:30:13.840Z,61.23
2023-04-08T01:32:41.254Z,64.40
2023-04-08T01:35:08.350Z,58.00
2023-04-08T01:37:35.827Z,54.60
2023-04-08T01:40:02.681Z,51.27
2023-04-08T01:42:29.892Z,59.00
2023-04-08T01:44:58.052Z,62.27
2023-04-08T01:47:25.740Z,62.67
2023-04-08T01:49:52.965Z,66.90
2023-04-08T01:52:20.425Z,72.63
2023-04-08T01:54:47.378Z,63.57
2023-04-08T01:57:19.831Z,62.50
2023-04-08T01:59:48.274Z,68.07
2023-04-08T02:02:15.791Z,56.40
2023-04-08T02:04:42.565Z,57.53
2023-04-08T02:07:09.554Z,65.97
2023-04-08T02:09:36.218Z,76.07
2023-04-08T02:12:03.140Z,59.00
2023-04-08T02:14:29.702Z,55.90
2023-04-08T02:17:02.478Z,64.83
2023-04-08T02:19:30.824Z,62.57
2023-04-08T02:22:04.412Z,62.93
2023-04-08T02:24:33.788Z,63.70
2023-04-08T02:27:00.806Z,71.10
2023-04-08T02:29:29.884Z,76.53
2023-04-08T02:31:56.916Z,50.93
2023-04-08T02:34:24.313Z,63.17
2023-04-08T02:36:51.999Z,57.00
2023-04-08T02:39:18.776Z,66.13
2023-04-08T02:41:48.344Z,53.60
2023-04-08T02:44:15.093Z,60.20
2023-04-08T02:46:41.817Z,57.20
2023-04-08T02:49:08.325Z,66.30
2023-04-08T02:51:34.934Z,76.90
2023-04-08T02:54:01.707Z,65.43
2023-04-08T02:56:28.328Z,68.20
2023-04-08T02:58:55.294Z,55.17
2023-04-08T03:01:22.192Z,59.80
2023-04-08T03:03:48.868Z,61.13
2023-04-08T03:06:15.511Z,59.53
2023-04-08T03:08:42.056Z,62.47
2023-04-08T03:11:09.157Z,68.47
2023-04-08T03:13:36.132Z,68.07
2023-04-08T03:16:02.877Z,58.07
2023-04-08T03:18:29.332Z,69.33
2023-04-08T03:20:55.954Z,64.40
2023-04-08T03:23:22.375Z,63.50
2023-04-08T03:25:49.117Z,69.23
2023-04-08T03:28:15.805Z,63.73
2023-04-08T03:30:42.502Z,65.33
2023-04-08T03:33:09.071Z,64.93
2023-04-08T03:35:36.101Z,63.63
2023-04-08T03:38:02.609Z,59.90
2023-04-08T03:40:29.325Z,65.57
2023-04-08T03:42:55.915Z,69.60
2023-04-08T03:45:22.399Z,65.00
2023-04-08T03:47:48.933Z,65.77
2023-04-08T03:50:15.528Z,70.37
2023-04-08T03:52:42.024Z,74.60
2023-04-08T03:55:09.030Z,80.17
2023-04-08T03:57:35.622Z,81.07
2023-04-08T04:00:02.125Z,72.67
2023-04-08T04:02:39.160Z,73.30
2023-04-08T04:05:06.265Z,78.40
2023-04-08T04:07:32.839Z,67.80
2023-04-08T04:09:59.726Z,65.40
2023-04-08T04:12:26.631Z,81.70
2023-04-08T04:14:53.585Z,70.07
2023-04-08T04:17:20.224Z,83.13
2023-04-08T04:19:46.891Z,76.73
2023-04-08T04:22:13.347Z,70.13
2023-04-08T04:24:39.851Z,64.80
2023-04-08T04:27:06.489Z,85.83
2023-04-08T04:29:33.146Z,74.57
2023-04-08T04:31:59.680Z,78.13
2023-04-08T04:34:26.134Z,88.43
2023-04-08T04:36:52.614Z,83.97
2023-04-08T04:39:19.156Z,67.63
2023-04-08T04:41:47.241Z,90.10
2023-04-08T04:44:13.765Z,80.20
2023-04-08T04:46:40.339Z,79.80
2023-04-08T04:49:06.843Z,78.87
2023-04-08T04:51:33.654Z,76.87
2023-04-08T04:54:00.396Z,93.03
2023-04-08T04:56:27.135Z,89.57
2023-04-08T04:58:53.729Z,70.30
2023-04-08T05:01:20.630Z,79.63
2023-04-08T05:03:47.272Z,106.53
2023-04-08T05:06:13.839Z,90.43
2023-04-08T05:08:40.605Z,70.60
2023-04-08T05:11:10.906Z,77.37
2023-04-08T05:13:37.444Z,86.87
2023-04-08T05:16:04.188Z,90.67
2023-04-08T05:18:30.784Z,93.73
2023-04-08T05:20:57.457Z,83.20
2023-04-08T05:23:24.040Z,85.53
2023-04-08T05:25:50.854Z,92.50
2023-04-08T05:28:17.523Z,95.53
2023-04-08T05:30:48.448Z,95.03
2023-04-08T05:33:15.000Z,110.07
2023-04-08T05:35:41.578Z,108.77
2023-04-08T05:38:08.104Z,111.80
2023-04-08T05:40:34.609Z,92.60
2023-04-08T05:43:01.426Z,93.73
2023-04-08T05:45:28.192Z,104.40
2023-04-08T05:47:54.790Z,115.93
2023-04-08T05:50:21.359Z,127.17
2023-04-08T05:52:47.854Z,124.73
2023-04-08T05:55:14.775Z,116.03
2023-04-08T05:57:41.685Z,141.83
2023-04-08T06:00:09.618Z,134.63
2023-04-08T06:02:37.604Z,129.80
2023-04-08T06:05:04.992Z,144.60
2023-04-08T06:07:32.510Z,125.23
2023-04-08T06:09:59.014Z,135.17
2023-04-08T06:12:25.644Z,119.63
2023-04-08T06:14:56.060Z,142.07
2023-04-08T06:17:22.765Z,144.47
2023-04-08T06:19:49.283Z,117.73
2023-04-08T06:22:16.153Z,125.87
2023-04-08T06:24:43.299Z,148.30
2023-04-08T06:27:10.037Z,120.13
2023-04-08T06:29:36.551Z,132.13
2023-04-08T06:32:03.171Z,125.77
2023-04-08T06:34:29.725Z,108.67
2023-04-08T06:36:56.451Z,90.13
2023-04-08T06:39:23.116Z,109.27
2023-04-08T06:41:50.066Z,90.20
2023-04-08T06:44:33.191Z,101.60
2023-04-08T06:46:59.756Z,117.20
2023-04-08T06:49:27.533Z,110.90
2023-04-08T06:51:54.199Z,102.27
2023-04-08T06:54:20.922Z,117.97
2023-04-08T06:56:47.825Z,107.27
2023-04-08T06:59:14.532Z,98.27
2023-04-08T07:01:42.032Z,114.47
2023-04-08T07:04:08.842Z,114.93
2023-04-08T07:06:35.855Z,126.80
2023-04-08T07:09:02.575Z,157.00
2023-04-08T07:11:29.408Z,121.17
2023-04-08T07:13:55.955Z,125.13
2023-04-08T07:16:22.820Z,122.23
2023-04-08T07:18:49.908Z,121.40
2023-04-08T07:21:18.536Z,122.37
2023-04-08T07:23:45.362Z,112.00
2023-04-08T07:26:11.924Z,126.17
2023-04-08T07:28:38.703Z,116.23
2023-04-08T07:31:09.580Z,142.83
2023-04-08T07:33:36.472Z,134.80
2023-04-08T07:36:03.247Z,125.03
2023-04-08T07:38:29.810Z,129.40
2023-04-08T07:40:56.406Z,136.47
2023-04-08T07:43:22.956Z,120.10
2023-04-08T07:45:49.645Z,120.50
2023-04-08T07:48:16.222Z,128.27
2023-04-08T07:51:08.846Z,112.40
2023-04-08T07:53:30.294Z,117.93
2023-04-08T07:55:56.813Z,117.30
2023-04-08T07:58:23.822Z,104.83
2023-04-08T08:00:50.582Z,105.40
2023-04-08T08:03:17.438Z,99.53
2023-04-08T08:05:44.062Z,141.50
2023-04-08T08:08:13.658Z,91.90
2023-04-08T08:10:40.689Z,84.70
2023-04-08T08:13:08.144Z,84.93
2023-04-08T08:15:35.108Z,70.90
2023-04-08T08:18:01.824Z,63.30
2023-04-08T08:20:28.420Z,60.40
2023-04-08T08:22:57.652Z,69.60
2023-04-08T08:25:26.117Z,54.80
2023-04-08T08:27:53.050Z,45.90
2023-04-08T08:30:21.872Z,68.07
2023-04-08T08:32:48.935Z,70.97
2023-04-08T08:35:15.906Z,58.60
2023-04-08T08:37:42.910Z,58.97
2023-04-08T08:40:09.853Z,65.20
2023-04-08T08:42:36.756Z,71.57
2023-04-08T08:45:03.700Z,54.93
2023-04-08T08:47:31.019Z,51.47
2023-04-08T08:49:57.740Z,53.17
2023-04-08T08:52:24.566Z,57.47
2023-04-08T08:55:01.142Z,50.17
2023-04-08T08:57:27.784Z,52.50
2023-04-08T08:59:54.590Z,57.70
2023-04-08T09:02:29.317Z,56.37
2023-04-08T09:05:01.251Z,64.80
2023-04-08T09:07:29.242Z,58.57
2023-04-08T09:09:56.365Z,61.97
2023-04-08T09:12:23.317Z,69.13
2023-04-08T09:14:50.244Z,55.70
2023-04-08T09:17:31.366Z,55.10
2023-04-08T09:20:14.070Z,61.47
2023-04-08T09:23:00.818Z,61.27
2023-04-08T09:25:29.138Z,53.10
2023-04-08T09:27:56.098Z,56.43
2023-04-08T09:30:23.979Z,65.70
2023-04-08T09:32:54.846Z,64.93
2023-04-08T09:35:22.088Z,56.77
2023-04-08T09:37:49.228Z,65.47
2023-04-08T09:40:16.355Z,67.93
2023-04-08T09:42:48.820Z,64.90
2023-04-08T09:45:16.089Z,62.10
2023-04-08T09:48:04.781Z,63.50
2023-04-08T09:50:32.748Z,66.60
2023-04-08T09:53:10.349Z,73.40
2023-04-08T09:55:37.470Z,68.77
2023-04-08T09:58:08.215Z,89.80
2023-04-08T10:00:38.853Z,67.37
2023-04-08T10:03:11.797Z,73.93
2023-04-08T10:05:40.750Z,67.20
2023-04-08T10:08:07.688Z,73.13
2023-04-08T10:10:39.364Z,76.97
2023-04-08T10:13:07.112Z,73.67
2023-04-08T10:15:34.546Z,85.73
2023-04-08T10:18:07.567Z,82.17
2023-04-08T10:20:34.416Z,84.13
2023-04-08T10:23:01.510Z,87.23
2023-04-08T10:25:30.456Z,89.10
2023-04-08T10:27:56.971Z,73.07
2023-04-08T10:30:31.526Z,75.67
2023-04-08T10:33:01.848Z,73.50
2023-04-08T10:35:32.966Z,74.27
2023-04-08T10:37:59.959Z,69.63
2023-04-08T10:40:26.529Z,72.53
2023-04-08T10:42:56.796Z,69.30
2023-04-08T10:45:23.854Z,72.43
2023-04-08T10:47:50.519Z,72.13
2023-04-08T10:50:18.011Z,75.20
2023-04-08T10:52:52.368Z,72.63
2023-04-08T10:55:23.511Z,78.80
2023-04-08T10:57:53.732Z,71.47
2023-04-08T11:00:33.237Z,71.40
2023-04-08T11:03:03.680Z,71.50
2023-04-08T11:05:31.463Z,68.93
2023-04-08T11:07:58.702Z,72.73
2023-04-08T11:10:25.674Z,73.27
2023-04-08T11:12:54.237Z,82.30
2023-04-08T11:15:21.346Z,74.60
2023-04-08T11:17:48.991Z,80.10
2023-04-08T11:20:15.852Z,77.20
2023-04-08T11:22:42.337Z,76.57
2023-04-08T11:25:10.203Z,71.67
2023-04-08T11:27:37.515Z,65.50
2023-04-08T11:30:05.679Z,63.60
2023-04-08T11:32:32.601Z,62.97
2023-04-08T11:35:04.836Z,60.77
2023-04-08T11:37:39.079Z,66.80
2023-04-08T11:40:09.525Z,68.03
2023-04-08T11:42:36.204Z,79.87
2023-04-08T11:45:09.608Z,64.10
2023-04-08T11:47:36.895Z,65.87
2023-04-08T11:50:03.889Z,50.40
2023-04-08T11:52:45.990Z,40.90
2023-04-08T11:55:13.170Z,39.20
2023-04-08T11:57:39.951Z,39.87
2023-04-08T12:00:07.625Z,34.00
2023-04-08T12:02:37.481Z,35.53
2023-04-08T12:05:04.557Z,34.87
2023-04-08T12:07:31.423Z,35.00
2023-04-08T12:09:58.301Z,30.80
2023-04-08T12:12:24.902Z,33.30
2023-04-08T12:14:51.466Z,33.20
2023-04-08T12:17:18.080Z,32.40
2023-04-08T12:19:44.756Z,28.90
2023-04-08T12:22:11.498Z,29.23
2023-04-08T12:24:38.124Z,34.03
2023-04-08T12:27:05.171Z,25.37
2023-04-08T12:29:32.007Z,27.23
2023-04-08T12:31:59.106Z,26.33
2023-04-08T12:34:25.901Z,28.93
2023-04-08T12:36:52.454Z,28.07
2023-04-08T12:39:19.002Z,30.37
2023-04-08T12:41:45.675Z,32.10
2023-04-08T12:44:12.693Z,32.60
2023-04-08T12:46:39.258Z,29.27
2023-04-08T12:49:06.455Z,26.53
2023-04-08T12:51:33.379Z,26.10
2023-04-08T12:54:01.410Z,25.73
2023-04-08T12:56:28.150Z,22.27
2023-04-08T12:58:56.147Z,24.30
2023-04-08T13:01:22.799Z,25.27
2023-04-08T13:03:49.728Z,26.60
2023-04-08T13:06:16.725Z,33.77
2023-04-08T13:08:43.287Z,23.67
2023-04-08T13:11:09.925Z,24.63
2023-04-08T13:13:36.920Z,21.50
2023-04-08T13:16:04.184Z,23.00
2023-04-08T13:18:31.070Z,24.93
2023-04-08T13:20:58.568Z,24.47
2023-04-08T13:23:25.186Z,24.53
2023-04-08T13:25:52.006Z,22.80
2023-04-08T13:28:18.841Z,28.43
2023-04-08T13:30:45.624Z,24.70
2023-04-08T13:33:12.240Z,28.70
2023-04-08T13:35:39.015Z,25.70
2023-04-08T13:38:05.987Z,27.90
2023-04-08T13:40:33.539Z,29.03
2023-04-08T13:43:00.143Z,31.43
2023-04-08T13:45:26.866Z,28.00
2023-04-08T13:47:53.620Z,25.87
2023-04-08T13:50:20.454Z,26.13
2023-04-08T13:52:47.258Z,20.07
2023-04-08T13:55:13.859Z,24.63
2023-04-08T13:57:40.695Z,24.27
2023-04-08T14:00:07.810Z,25.30
2023-04-08T14:02:37.245Z,24.83
2023-04-08T14:05:04.459Z,23.53
2023-04-08T14:07:30.969Z,22.20
2023-04-08T14:09:57.599Z,24.57
2023-04-08T14:12:24.182Z,21.43
2023-04-08T14:14:50.782Z,25.50
2023-04-08T14:17:17.871Z,24.70
2023-04-08T14:19:44.388Z,20.50
2023-04-08T14:22:11.266Z,20.47
2023-04-08T14:24:38.197Z,22.03
2023-04-08T14:27:04.942Z,23.53
2023-04-08T14:29:31.810Z,19.77
2023-04-08T14:31:59.191Z,27.40
2023-04-08T14:34:25.884Z,21.93
2023-04-08T14:36:52.790Z,20.67
2023-04-08T14:39:19.502Z,22.00
2023-04-08T14:41:47.759Z,27.10
2023-04-08T14:44:14.445Z,21.63
2023-04-08T14:46:41.361Z,20.57
2023-04-08T14:49:07.977Z,27.53
2023-04-08T14:51:37.192Z,21.87
2023-04-08T14:54:03.777Z,29.53
2023-04-08T14:56:31.440Z,25.10
2023-04-08T14:58:57.975Z,21.17
2023-04-08T15:01:24.684Z,19.37
2023-04-08T15:03:51.801Z,22.47
2023-04-08T15:06:21.077Z,22.03
2023-04-08T15:08:47.797Z,18.10
2023-04-08T15:11:14.761Z,16.80
2023-04-08T15:13:41.604Z,21.03
2023-04-08T15:16:08.678Z,15.63
2023-04-08T15:18:36.392Z,16.80
2023-04-08T15:21:03.305Z,17.67
2023-04-08T15:23:29.875Z,17.90
2023-04-08T15:25:57.747Z,17.50
2023-04-08T15:28:24.342Z,20.57
2023-04-08T15:30:51.290Z,15.10
2023-04-08T15:33:19.339Z,25.50
2023-04-08T15:35:49.608Z,16.40
2023-04-08T15:38:16.400Z,21.63
2023-04-08T15:40:43.123Z,18.43
2023-04-08T15:43:10.683Z,15.77
2023-04-08T15:45:41.836Z,21.10
2023-04-08T15:48:11.651Z,17.87
2023-04-08T15:50:38.207Z,16.83
2023-04-08T15:53:04.861Z,17.10
2023-04-08T15:55:31.452Z,17.10
2023-04-08T15:57:58.205Z,16.80
2023-04-08T16:00:24.868Z,24.90
2023-04-08T16:02:51.632Z,15.73
2023-04-08T16:05:18.539Z,23.10
2023-04-08T16:07:45.512Z,20.07
2023-04-08T16:10:12.181Z,24.43
2023-04-08T16:12:39.206Z,20.73
2023-04-08T16:15:06.206Z,28.53
2023-04-08T16:17:32.784Z,32.83
2023-04-08T16:19:59.939Z,27.80
2023-04-08T16:22:27.516Z,28.97
2023-04-08T16:24:54.206Z,28.83
2023-04-08T16:27:20.769Z,28.63
2023-04-08T16:29:47.425Z,29.63
2023-04-08T16:32:14.051Z,31.47
2023-04-08T16:34:40.669Z,31.10
2023-04-08T16:37:07.383Z,27.23
2023-04-08T16:39:34.089Z,32.83
2023-04-08T16:42:00.657Z,28.43
2023-04-08T16:44:27.288Z,46.97
2023-04-08T16:46:53.843Z,33.90
2023-04-08T16:49:20.747Z,57.50
2023-04-08T16:51:47.472Z,175.87
2023-04-08T16:54:14.423Z,73.27
2023-04-08T16:56:44.475Z,46.20
2023-04-08T16:59:11.806Z,122.90
2023-04-08T17:01:38.539Z,69.50
2023-04-08T17:04:05.429Z,69.53
2023-04-08T17:06:34.523Z,38.47
2023-04-08T17:12:07.107Z,358.67
2023-04-08T17:14:34.031Z,262.73
2023-04-08T17:17:00.669Z,171.20
2023-04-08T17:19:27.441Z,134.73
2023-04-08T17:21:54.005Z,56.77
2023-04-08T17:24:20.598Z,182.90
2023-04-08T17:26:48.181Z,262.17
2023-04-08T17:29:14.717Z,167.17
2023-04-08T17:31:41.566Z,242.23
2023-04-08T17:34:08.234Z,190.90
2023-04-08T17:36:34.885Z,84.13
2023-04-08T17:39:01.498Z,85.07
2023-04-08T17:41:39.165Z,66.13
2023-04-08T17:44:07.276Z,155.07
2023-04-08T17:46:34.098Z,262.13
2023-04-08T17:49:00.846Z,511.63
2023-04-08T17:51:28.964Z,370.57
2023-04-08T17:53:56.076Z,110.70
2023-04-08T17:56:23.416Z,114.87
2023-04-08T17:58:50.591Z,58.00
2023-04-08T18:01:17.330Z,63.77
2023-04-08T18:03:44.843Z,81.73
2023-04-08T18:06:11.522Z,66.90
2023-04-08T18:08:38.150Z,61.63
2023-04-08T18:11:05.856Z,56.10
2023-04-08T18:13:33.179Z,54.77
2023-04-08T18:15:59.889Z,49.23
2023-04-08T18:18:26.495Z,55.20
2023-04-08T18:20:53.302Z,52.53
2023-04-08T18:23:19.940Z,51.33
2023-04-08T18:25:47.179Z,58.57
2023-04-08T18:28:13.872Z,60.67
2023-04-08T18:30:40.803Z,67.40
2023-04-08T18:33:07.617Z,59.60
2023-04-08T18:35:34.200Z,74.57
2023-04-08T18:38:00.777Z,55.50
2023-04-08T18:40:28.063Z,58.17
2023-04-08T18:42:54.985Z,57.87
2023-04-08T18:45:21.529Z,67.97
2023-04-08T18:47:48.082Z,74.80
2023-04-08T18:50:14.661Z,67.47
2023-04-08T18:52:41.821Z,68.73
2023-04-08T18:55:08.424Z,66.17
2023-04-08T18:57:35.812Z,60.77
2023-04-08T19:00:02.432Z,61.87
2023-04-08T19:02:29.352Z,57.50
2023-04-08T19:04:56.347Z,54.20
2023-04-08T19:07:23.285Z,55.03
2023-04-08T19:09:50.102Z,54.83
2023-04-08T19:12:16.789Z,54.13
2023-04-08T19:14:43.394Z,56.43
2023-04-08T19:17:11.047Z,51.77
2023-04-08T19:19:38.980Z,52.77
2023-04-08T19:22:05.997Z,55.53
2023-04-08T19:24:33.024Z,57.03
2023-04-08T19:26:59.646Z,56.17
2023-04-08T19:29:28.882Z,51.90
2023-04-08T19:31:57.105Z,51.23
2023-04-08T19:34:23.667Z,53.90
2023-04-08T19:36:50.356Z,52.57
2023-04-08T19:39:17.027Z,55.90
2023-04-08T19:41:43.793Z,62.10
2023-04-08T19:44:10.532Z,58.23
2023-04-08T19:46:37.394Z,58.67
2023-04-08T19:49:04.397Z,62.37
2023-04-08T19:51:32.426Z,64.37
2023-04-08T19:53:59.024Z,73.30
2023-04-08T19:56:25.811Z,75.30
2023-04-08T19:58:52.612Z,70.33
2023-04-08T20:01:19.458Z,78.73
2023-04-08T20:03:50.678Z,79.53
2023-04-08T20:06:17.904Z,80.93
2023-04-08T20:08:44.806Z,79.27
2023-04-08T20:11:11.924Z,74.80
2023-04-08T20:13:39.963Z,72.07
2023-04-08T20:16:07.430Z,70.80
2023-04-08T20:18:34.374Z,73.03
2023-04-08T20:21:01.086Z,65.50
2023-04-08T20:23:28.478Z,65.07
2023-04-08T20:25:55.140Z,71.47
2023-04-08T20:28:21.752Z,75.37
2023-04-08T20:30:48.329Z,72.50
2023-04-08T20:33:15.400Z,74.07
2023-04-08T20:35:41.917Z,70.80
2023-04-08T20:38:08.503Z,72.13
2023-04-08T20:40:35.201Z,71.20
2023-04-08T20:43:02.376Z,75.40
2023-04-08T20:45:28.919Z,69.47
2023-04-08T20:47:55.629Z,76.03
2023-04-08T20:50:22.314Z,73.30
2023-04-08T20:52:49.141Z,72.33
2023-04-08T20:55:15.870Z,76.37
2023-04-08T20:57:44.197Z,73.67
2023-04-08T21:00:11.135Z,77.13
2023-04-08T21:02:38.052Z,76.20
2023-04-08T21:05:04.858Z,79.00
2023-04-08T21:07:31.499Z,67.43
2023-04-08T21:09:58.034Z,67.33
2023-04-08T21:12:24.796Z,72.90
2023-04-08T21:14:51.399Z,71.90
2023-04-08T21:17:18.134Z,65.70
2023-04-08T21:19:45.057Z,75.80
2023-04-08T21:22:11.653Z,69.27
2023-04-08T21:24:38.330Z,68.33
2023-04-08T21:27:05.173Z,67.53
2023-04-08T21:29:31.816Z,76.67
2023-04-08T21:31:58.508Z,80.57
2023-04-08T21:34:25.703Z,77.73
2023-04-08T21:36:52.610Z,56.70
2023-04-08T21:39:20.237Z,67.30
2023-04-08T21:41:48.169Z,65.30
2023-04-08T21:44:15.720Z,71.87
2023-04-08T21:46:42.218Z,73.83
2023-04-08T21:49:11.170Z,70.83
2023-04-08T21:51:38.957Z,75.30
2023-04-08T21:54:05.682Z,63.40
2023-04-08T21:56:32.245Z,77.43
2023-04-08T21:58:58.782Z,72.13
2023-04-08T22:01:25.494Z,70.87
2023-04-08T22:03:55.265Z,61.93
2023-04-08T22:06:31.499Z,67.67
2023-04-08T22:08:59.433Z,71.30
2023-04-08T22:11:26.130Z,75.43
2023-04-08T22:13:52.806Z,76.00
2023-04-08T22:16:19.507Z,69.93
2023-04-08T22:18:46.597Z,71.80
2023-04-08T22:21:13.226Z,64.90
2023-04-08T22:23:40.619Z,71.37
2023-04-08T22:26:07.311Z,73.37
2023-04-08T22:28:34.625Z,72.50
2023-04-08T22:31:01.494Z,71.27
2023-04-08T22:33:28.248Z,87.07
2023-04-08T22:35:56.679Z,85.47
2023-04-08T22:38:23.574Z,91.33
2023-04-08T22:40:50.113Z,83.67
2023-04-08T22:43:16.600Z,83.80
2023-04-08T22:45:43.102Z,83.77
2023-04-08T22:48:09.702Z,92.90
2023-04-08T22:50:36.550Z,87.97
2023-04-08T22:53:03.705Z,84.13
2023-04-08T22:55:30.865Z,84.60
2023-04-08T22:57:57.397Z,91.30
2023-04-08T23:00:23.976Z,91.00
2023-04-08T23:02:50.732Z,107.20
2023-04-08T23:05:17.630Z,107.70
2023-04-08T23:07:44.160Z,110.73
2023-04-08T23:10:11.024Z,106.57
2023-04-08T23:12:37.611Z,120.47
2023-04-08T23:15:04.513Z,111.00
2023-04-08T23:17:31.224Z,115.03
2023-04-08T23:19:57.937Z,127.50
2023-04-08T23:22:24.626Z,123.03
2023-04-08T23:24:51.248Z,132.23
2023-04-08T23:27:17.791Z,137.43
2023-04-08T23:29:44.254Z,137.33
2023-04-08T23:32:10.853Z,125.57
2023-04-08T23:34:37.880Z,118.23
2023-04-08T23:37:04.491Z,128.03
2023-04-08T23:39:31.572Z,130.23
2023-04-08T23:41:58.292Z,131.57
2023-04-08T23:44:24.763Z,124.63
2023-04-08T23:46:51.587Z,145.93
2023-04-08T23:49:18.244Z,161.87
2023-04-08T23:51:44.963Z,148.33
2023-04-08T23:54:11.583Z,150.63
2023-04-08T23:56:40.319Z,151.63
2023-04-08T23:59:06.831Z,159.80
